Nearby METAR Reports

 

KIAG - Niagara Falls, New York, USA
Distance from station: W 12mi, 20km
Updated: 05/23/2024 1:53am
Overcast
Overcast
 Wind from NW
Wind: NW 13 mph , 20 km/h
Temperature: 64°F , 18°C
Dew Point: 59°F , 15°C
Humidity: 83%
Barometer: 1010.5 hPa
Clouds: Overcast
Visibility: 10 miles , 16 km
Cloud details: Few Clouds 2000 ft
Mostly cloudy 9500 ft
Overcast 12000 ft
2024/05/23 05:53 KIAG 230553Z AUTO 31011KT 10SM FEW020 BKN095 OVC120 18/15 A2984 RMK AO2 PK WND 24032/0507 RAE50 SLP101 P0004 60009 T01830150 10256 20183 53030
KBUF - Buffalo/Cheektow, New York, USA
Distance from station: S 13mi, 21km
Updated: 05/23/2024 1:54am
Overcast
Overcast
 Wind from WNW
Wind: WNW 8 mph , 13 km/h
Temperature: 64°F , 18°C
Dew Point: 61°F , 16°C
Humidity: 88%
Barometer: 1010.5 hPa
Clouds: Overcast
Visibility: 10 miles , 16 km
Cloud details: Few Clouds 5000 ft
Mostly cloudy 10000 ft
Overcast 16000 ft
2024/05/23 05:54 KBUF 230554Z 29007KT 10SM FEW050 BKN100 OVC160 18/16 A2984 RMK AO2 PK WND 24034/0500 RAB03E50 SLP102 P0004 60004 T01830161 10256 20178 53024 $
 
KROC - Rochester, New York, USA
Distance from station: E 51mi, 82km
Updated: 05/23/2024 1:54am
Overcast
Overcast
 Wind from W
Wind: W 23 mph , 37 km/h, Gust: 35 mph , 56 km/h
Temperature: 75°F , 24°C
Dew Point: 61°F , 16°C
Humidity: 61%
Barometer: 1009.1 hPa
Clouds: Overcast
Visibility: 10 miles , 16 km
Cloud details: Few Clouds 12000 ft
Overcast 18000 ft
2024/05/23 05:54 KROC 230554Z 28020G30KT 10SM FEW120 OVC180 24/16 A2980 RMK AO2 PK WND 27030/0554 PRESRR SLP090 T02440161 10261 20228 53010
CYSN - St. Catharines A, Ontario, Canada
Distance from station: WNW 25mi, 40km
Updated: 05/22/2024 9:00pm
NOT Current
Few Clouds
Few Clouds
 Wind from SSW
Wind: SSW 17 mph , 28 km/h, Gust: 23 mph , 37 km/h
Temperature: 75°F , 24°C
Dew Point: 64°F , 18°C
Humidity: 69%
Barometer: 1006.1 hPa
Clouds: Few Clouds
Visibility: 15 miles , 24 km
Cloud details: Few Clouds 4000 ft
Few Clouds 23000 ft
2024/05/23 01:00 CYSN 230100Z 20015G20KT 15SM FEW040 FEW230 24/18 A2971 RMK CU1CI1 LAST STFD OBS/NEXT 231100Z PRESRR SLP063 DENSITY ALT 1800FT
 
KOLE - Olean, New York, USA
Distance from station: SSE 63mi, 102km
Updated: 05/23/2024 1:55am
Partly cloudy
Partly cloudy
 Wind from WSW
Wind: WSW 6 mph , 9 km/h
Temperature: 63°F , 17°C
Dew Point: 54°F , 12°C
Humidity: 73%
Barometer: 1013.2 hPa
Clouds: Partly cloudy
Visibility: 10 miles , 16 km
Cloud details: Partly cloudy 7500 ft
Partly cloudy 9000 ft
Partly cloudy 11000 ft
2024/05/23 05:55 KOLE 230555Z AUTO 25005KT 10SM SCT075 SCT090 SCT110 17/12 A2992 RMK AO2
KJHW - Jamestown, New York, USA
Distance from station: SSW 74mi, 119km
Updated: 05/23/2024 1:56am
Few Clouds
Few Clouds
 Wind from S
Wind: S 3 mph , 6 km/h
Temperature: 61°F , 16°C
Dew Point: 59°F , 15°C
Humidity: 94%
Barometer: 1011.9 hPa
Clouds: Few Clouds
Visibility: 10 miles , 16 km
Cloud details: Few Clouds 12000 ft
2024/05/23 05:56 KJHW 230556Z AUTO 18003KT 10SM FEW120 16/15 A2988 RMK AO2 TSE33RAE16 SLP119 P0000 60009 T01560150 10228 20156 50001
 
CWWZ - Port Weller (mar, Ontario, Canada
Distance from station: WNW 28mi, 45km
Updated: 05/23/2024 2:00am

 Wind from W
Wind: W 15 mph , 24 km/h
Temperature: 59°F , 15°C
Dew Point: 57°F , 14°C
Humidity: 94%
2024/05/23 06:00 CWWZ 230600Z AUTO 27013KT 15/14 RMK AO1 6PAST HR 0035 PK WND 27019/0506 SLP104 P0006 T01530142 50021
CWPC - Port Colborne(Au, Ontario, Canada
Distance from station: WSW 33mi, 53km
Updated: 05/23/2024 2:00am

 Wind from NW
Wind: NW 14 mph , 22 km/h, Gust: 21 mph , 33 km/h
Temperature: 64°F , 18°C
Dew Point: 61°F , 16°C
Humidity: 88%
2024/05/23 06:00 CWPC 230600Z AUTO 31012G18KT 18/16 RMK AO1 PK WND 26030/0500 SLP114 T01750155 50024
 
CXVN - Vineland (au8), Ontario, Canada
Distance from station: W 36mi, 58km
Updated: 05/23/2024 2:00am

 Wind from W
Wind: W 7 mph , 11 km/h
Temperature: 63°F , 17°C
Dew Point: 57°F , 14°C
Humidity: 83%
2024/05/23 06:00 CXVN 230600Z AUTO 27006KT 17/14 RMK AO1 7PAST HR 0035 PK WND 29018/0504 SLP106 P0007 T01670135 50019
CYTZ - Toronto Il Vor, Ontario, Canada
Distance from station: NW 50mi, 81km
Updated: 05/23/2024 2:00am
Overcast
Overcast
 Wind from WNW
Wind: WNW 15 mph , 24 km/h, Gust: 22 mph , 35 km/h
Temperature: 66°F , 19°C
Dew Point: 52°F , 11°C
Humidity: 60%
Barometer: 1009.8 hPa
Clouds: Overcast
Visibility: 9 miles , 14 km
Cloud details: Few Clouds 6600 ft
Mostly cloudy 11000 ft
Overcast 13000 ft
2024/05/23 06:00 CYTZ 230600Z AUTO 29013G19KT 9SM FEW066 BKN110 OVC130 19/11 A2982 RMK SLP101 DENSITY ALT 1000FT
 
CXTO - Toronto City, Ontario, Canada
Distance from station: NW 52mi, 84km
Updated: 05/23/2024 2:00am

 
Temperature: 66°F , 19°C
Dew Point: 50°F , 10°C
Humidity: 56%
2024/05/23 06:00 CXTO 230600Z AUTO 19/10 RMK AO1 3PAST HR 1035 SLP101 P0001 T01940095 50003
KDKK - Dunkirk, New York, USA
Distance from station: SW 52mi, 84km
Updated: 05/23/2024 1:53am
Few Clouds
Few Clouds
 Wind from WNW
Wind: WNW 6 mph , 9 km/h
Temperature: 68°F , 20°C
Dew Point: 61°F , 16°C
Humidity: 78%
Barometer: 1010.2 hPa
Clouds: Few Clouds
Visibility: 10 miles , 16 km
Cloud details: Few Clouds 4700 ft
2024/05/23 05:53 KDKK 230553Z AUTO 30005KT 10SM FEW047 20/16 A2983 RMK AO2 RAE33 SLP099 P0001 60004 T02000156 10261 20189 50016
 
CYOO - Oshawa, Ontario, Canada
Distance from station: N 56mi, 90km
Updated: 05/23/2024 2:06am
Overcast
Overcast
 Wind from W
Wind: W 8 mph , 13 km/h
Temperature: 64°F , 18°C
Dew Point: 55°F , 13°C
Humidity: 73%
Barometer: 1009.8 hPa
Clouds: Overcast
Visibility: 9 miles , 14 km
Cloud details: Mostly cloudy 11000 ft
Overcast 13000 ft
2024/05/23 06:06 CYOO 230606Z AUTO 28007KT 9SM BKN110 OVC130 18/13 A2982 RMK LTNG DIST SE SLP099 DENSITY ALT 1100FT
CWWB - Burlington Piers, Ontario, Canada
Distance from station: WNW 56mi, 91km
Updated: 05/23/2024 2:00am

 Wind from WSW
Wind: WSW 3 mph , 6 km/h
Temperature: 66°F , 19°C
Dew Point: 63°F , 17°C
Humidity: 88%
2024/05/23 06:00 CWWB 230600Z AUTO 24003KT 19/17 RMK AO1 SLP105 T01880169 50037
 
CYYZ - Toronto/Pearson, Ontario, Canada
Distance from station: NW 60mi, 96km
Updated: 05/23/2024 2:00am
Mostly cloudy
Mostly cloudy
 Wind from W
Wind: W 13 mph , 20 km/h
Temperature: 66°F , 19°C
Dew Point: 50°F , 10°C
Humidity: 56%
Barometer: 1010.2 hPa
Clouds: Mostly cloudy
Visibility: 15 miles , 24 km
Cloud details: Partly cloudy 7000 ft
Mostly cloudy 11000 ft
2024/05/23 06:00 CYYZ 230600Z 28011KT 15SM SCT070 BKN110 19/10 A2983 RMK AC3AC4 SLP101 DENSITY ALT 1300FT
CYKZ - Toronto Buttonvi, Ontario, Canada
Distance from station: NW 62mi, 99km
Updated: 01/03/2019 4:00am
NOT Current
Partly cloudy
Partly cloudy
 Wind from WSW
Wind: WSW 5 mph , 7 km/h
Temperature: 27°F , -3°C
Wind Chill: 21°F , -6°C
Dew Point: 23°F , -5°C
Humidity: 86%
Barometer: 1010.8 hPa
Clouds: Partly cloudy
Visibility: 15 miles , 24 km
Cloud details: Partly cloudy 4000 ft
2019/01/03 09:00 CYKZ 030900Z 25004KT 15SM SCT040 M03/M05 A2985 RMK SC3 LAST STFD OBS FAREWELL SLP118
 
CXHM - Hamilton Rbg Cs, Ontario, Canada
Distance from station: W 62mi, 100km
Updated: 05/23/2024 2:00am

 Wind from WSW
Wind: WSW 1 mph , 2 km/h
Temperature: 63°F , 17°C
Dew Point: 57°F , 14°C
Humidity: 83%
2024/05/23 06:00 CXHM 230600Z AUTO 25001KT 17/14 RMK AO1 1037 SLP108 T01670142 50005
KDSV - Dansville, New York, USA
Distance from station: SE 62mi, 100km
Updated: 05/23/2024 1:54am
Few Clouds
Few Clouds
 Wind from varies
Wind: varies 5 mph , 7 km/h
Temperature: 75°F , 24°C
Dew Point: 63°F , 17°C
Humidity: 65%
Barometer: 1010.2 hPa
Clouds: Few Clouds
Visibility: 10 miles , 16 km
Cloud details: Few Clouds 8000 ft
2024/05/23 05:54 KDSV 230554Z AUTO VRB04KT 10SM FEW080 24/17 A2983 RMK AO2 SLP101 T02440167 10256 20217 53002
 
CYHM - Hamilton Airport, Ontario, Canada
Distance from station: W 63mi, 101km
Updated: 05/23/2024 2:00am
Mostly cloudy
Mostly cloudy
 Wind from W
Wind: W 6 mph , 9 km/h
Temperature: 61°F , 16°C
Dew Point: 57°F , 14°C
Humidity: 88%
Barometer: 1011.2 hPa
Clouds: Mostly cloudy
Visibility: 15 miles , 24 km
Cloud details: Few Clouds 5400 ft
Mostly cloudy 10000 ft
Mostly cloudy 23000 ft
2024/05/23 06:00 CYHM 230600Z 26005KT 15SM FEW054 BKN100 BKN230 16/14 A2986 RMK SC1AC4CI2 VIA CYXU SLP110 DENSITY ALT 1200FT
CWNC - Cobourg (mars), Ontario, Canada
Distance from station: NNE 63mi, 102km
Updated: 04/19/2024 7:00pm
NOT Current

 Wind from WSW
Wind: WSW 2 mph , 4 km/h
Temperature: 46°F , 8°C
Dew Point: 37°F , 3°C
Humidity: 71%
2024/04/19 23:00 CWNC 192300Z AUTO 24002KT 08/03 RMK AO1 SLP212 T00810033 56007